Latest Weather Observations for Maatsuyker Island

IDT60801

Issued at 4:02 pm EDT Tuesday 31 March 2015 (issued every 30 minutes, with the page automatically refreshed every 10 minutes)

About weather observations | Map of weather stations | Latest weather observations for TAS | Other Formats
Station Details ID: 094041 Name: MAATSUYKER ISLAND LIGHTHOUSE Lat: -43.66 Lon: 146.27 Height: 146.5 m
Data from the previous 72 hours. | See also: Recent months at Maatsuyker Island
Date/Time
EDT
Temp
°C
App
Temp
°C
Dew
Point
Rel
Hum
%
Delta-T
°C
Wind Press
QNH
hPa
Press
MSL
hPa
Rain
since 9 am
mm
Dir
 
Spd
km/h
Gust
km/h
Spd
kts
Gust
kts
31/04:00pm 14.2 7.8 10.6 79 1.9 NNW 35 44 19 24 1020.7 - 0.2
31/03:30pm 14.2 7.7 11.6 84 1.4 NW 37 48 20 26 1020.8 - 0.2
31/03:00pm 14.0 7.3 11.0 82 1.6 W 37 54 20 29 1020.9 1020.9 0.2
31/02:30pm 14.1 7.8 11.1 82 1.6 NNW 35 44 19 24 1021.4 - 0.2
31/02:00pm 13.6 7.4 11.5 87 1.1 NNW 35 46 19 25 1021.5 - 0.2
31/01:30pm 12.7 5.0 12.1 96 0.3 NNW 44 56 24 30 1021.7 - 0.2
31/01:00pm 13.1 5.9 12.0 93 0.6 NNW 41 54 22 29 1022.2 - 0.2
31/12:30pm 13.6 6.2 11.3 86 1.2 NNW 41 54 22 29 1022.2 - 0.2
31/12:00pm 13.3 6.0 11.6 89 0.9 NNW 41 50 22 27 1022.2 1022.2 0.2
31/11:30am 13.1 6.1 11.4 89 0.9 NNW 39 48 21 26 1022.4 - 0.0
31/11:00am 13.0 6.7 10.9 87 1.1 NNW 35 44 19 24 1022.5 - 0.0
31/10:30am 12.8 7.0 10.9 88 1.0 NNW 32 43 17 23 1022.5 - 0.0
31/10:00am 12.7 7.0 11.2 91 0.8 NNW 32 44 17 24 1022.7 - 0.0
31/09:30am 12.4 6.7 11.3 93 0.6 NNW 32 46 17 25 1022.7 - 0.0
31/09:00am 12.3 8.6 11.4 94 0.5 NNW 22 41 12 22 1022.8 1022.8 0.2
31/08:30am 12.1 6.4 11.3 95 0.4 NNW 32 39 17 21 1022.7 - 0.2
31/08:00am 12.0 6.3 11.2 95 0.4 NNW 32 41 17 22 1022.5 - 0.2
31/07:30am 12.1 6.4 11.1 94 0.5 NNW 32 39 17 21 1022.4 - 0.2
31/07:00am 11.8 6.0 11.4 97 0.2 NNW 33 43 18 23 1022.1 - 0.2
31/06:30am 12.0 6.1 11.2 95 0.4 NNW 33 43 18 23 1021.7 - 0.0
31/06:00am 11.9 6.2 11.1 95 0.4 NNW 32 41 17 22 1021.8 1021.8 0.0
31/05:30am 12.1 6.2 11.1 94 0.5 NNW 33 43 18 23 1021.8 - 0.0
31/05:00am 12.7 6.3 10.6 87 1.1 NNW 35 48 19 26 1021.6 - 0.0
31/04:30am 13.0 6.9 10.5 85 1.3 NNW 33 41 18 22 1021.8 - 0.0
31/04:00am 12.9 5.2 10.0 82 1.5 NNW 41 52 22 28 1021.9 - 0.0
31/03:30am 12.9 6.7 10.0 82 1.5 NNW 33 44 18 24 1021.8 - 0.0
31/03:00am 13.1 6.8 9.6 79 1.8 NNW 33 43 18 23 1022.0 1022.0 0.0
31/02:30am 13.0 6.9 9.9 81 1.6 NNW 32 41 17 22 1022.2 - 0.0
31/02:00am 13.2 7.1 9.7 79 1.8 NNW 32 41 17 22 1022.1 - 0.0
31/01:30am 13.0 6.9 9.9 81 1.6 NNW 32 41 17 22 1022.0 - 0.0
31/01:13am 13.0 6.9 9.9 81 1.6 NNW 32 50 17 27 1022.1 - 0.0
31/01:00am 13.2 7.1 10.3 82 1.5 NNW 33 44 18 24 1022.0 - 0.0
31/12:30am 13.2 6.2 10.1 81 1.6 NNW 37 44 20 24 1022.0 - 0.0
31/12:00am 13.4 5.2 9.7 78 1.9 NNW 43 52 23 28 1022.0 1022.0 0.0
 
Date/Time
EDT
Temp
°C
App
Temp
°C
Dew
Point
Rel
Hum
%
Delta-T
°C
Wind Press
QNH
hPa
Press
MSL
hPa
Rain
since 9 am
mm
Dir
 
Spd
km/h
Gust
km/h
Spd
kts
Gust
kts
30/11:30pm 12.9 3.2 10.4 85 1.3 NNW 52 63 28 34 1021.9 - 0.0
30/11:00pm 13.1 5.0 10.0 81 1.6 NNW 43 54 23 29 1021.9 - 0.0
30/10:30pm 13.4 4.7 9.9 79 1.8 NNW 46 56 25 30 1021.8 - 0.0
30/10:00pm 12.8 4.7 10.1 84 1.4 NNW 43 52 23 28 1021.8 - 0.0
30/09:36pm 13.1 3.7 10.0 81 1.6 NNW 50 69 27 37 1021.4 - 0.0
30/09:30pm 13.1 2.8 9.8 80 1.7 NNW 54 63 29 34 1021.3 - 0.0
30/09:00pm 13.3 3.3 9.2 76 2.1 NNW 52 61 28 33 1021.3 1021.2 0.0
30/08:30pm 13.1 1.8 9.4 78 1.9 NNW 59 69 32 37 1020.8 - 0.0
30/08:00pm 12.6 1.5 10.1 85 1.3 NNW 59 74 32 40 1020.4 - 0.0
30/07:56pm 13.1 2.6 10.4 84 1.4 NNW 56 74 30 40 1020.2 - 0.0
30/07:30pm 13.3 1.8 10.2 81 1.6 NW 61 70 33 38 1020.0 - 0.0
30/07:00pm 13.2 1.9 9.5 78 1.9 NNW 59 70 32 38 1019.8 - 0.0
30/06:30pm 13.3 1.6 9.4 77 2.0 NW 61 72 33 39 1019.3 - 0.0
30/06:00pm 13.1 1.5 9.8 80 1.7 NW 61 70 33 38 1019.1 1019.0 0.0
30/05:30pm 13.2 1.3 9.9 80 1.7 NW 63 72 34 39 1019.0 - 0.0
30/05:00pm 13.3 2.0 11.0 86 1.2 NNW 61 76 33 41 1018.4 - 0.0
30/04:41pm 13.2 2.4 11.1 87 1.1 NW 59 78 32 42 1018.3 - 0.0
30/04:30pm 13.3 1.8 11.4 88 1.0 NW 63 74 34 40 1018.4 - 0.0
30/04:00pm 13.4 1.8 11.1 86 1.2 NW 63 69 34 37 1018.4 - 0.0
30/03:30pm 14.4 3.3 8.2 66 3.1 NNW 56 67 30 36 1018.1 - 0.0
30/03:19pm 14.7 4.3 7.9 63 3.4 NNW 52 70 28 38 1018.3 - 0.0
30/03:00pm 14.3 5.2 8.3 67 3.0 W 46 65 25 35 1018.3 1018.2 0.0
30/02:30pm 13.9 3.0 8.8 71 2.6 NNW 56 67 30 36 1018.2 - 0.0
30/02:00pm 13.8 2.9 9.5 75 2.2 NNW 57 69 31 37 1018.0 - 0.0
30/01:30pm 13.5 1.7 9.0 74 2.3 NW 61 72 33 39 1017.9 - 0.0
30/01:00pm 13.2 1.7 10.1 81 1.6 NW 61 67 33 36 1017.7 - 0.0
30/12:30pm 12.5 0.5 11.2 92 0.7 NW 65 72 35 39 1017.8 - 0.0
30/12:00pm 13.4 3.0 11.3 87 1.1 NW 57 72 31 39 1017.6 1017.6 0.0
30/11:54am 13.9 5.1 11.1 83 1.5 NNW 48 72 26 39 1017.4 - 0.0
30/11:30am 13.4 5.8 11.7 89 0.9 NNW 43 54 23 29 1018.0 - 0.0
30/11:00am 13.5 4.2 10.4 81 1.6 NNW 50 63 27 34 1017.9 - 0.0
30/10:30am 13.6 5.2 11.0 84 1.4 NNW 46 59 25 32 1018.0 - 0.0
30/10:00am 13.4 4.0 10.1 80 1.7 NNW 50 65 27 35 1017.7 - 0.0
30/09:30am 13.4 3.0 9.1 75 2.2 NNW 54 67 29 36 1017.3 - 0.0
30/09:00am 13.7 2.6 8.1 69 2.8 WNW 56 72 30 39 1017.0 1017.0 2.6
30/08:30am 13.5 0.5 7.2 65 3.1 NW 65 72 35 39 1016.7 - 2.6
30/08:00am 13.3 1.0 8.5 72 2.4 NNW 63 76 34 41 1016.5 - 2.6
30/07:30am 13.0 2.2 9.9 81 1.6 NNW 57 69 31 37 1016.0 - 2.4
30/07:00am 12.3 -0.4 9.8 85 1.3 NW 67 76 36 41 1015.7 - 2.4
30/06:30am 13.0 1.0 9.7 80 1.7 NW 63 70 34 38 1015.8 - 2.4
30/06:00am 13.1 0.6 9.2 77 2.0 WNW 65 80 35 43 1015.2 1015.2 2.4
30/05:30am 13.3 -0.5 7.9 70 2.7 NW 70 78 38 42 1015.1 - 2.4
30/05:29am 13.3 -0.3 7.9 70 2.7 NW 69 76 37 41 1015.1 - 2.4
30/05:15am 13.3 4.2 9.8 79 1.8 NNW 48 69 26 37 1015.4 - 2.4
30/05:00am 13.2 4.9 9.9 80 1.7 NNW 44 56 24 30 1015.4 - 2.4
30/04:30am 13.5 3.8 7.6 67 2.9 NNW 48 59 26 32 1015.3 - 2.4
30/04:00am 13.4 2.5 7.1 65 3.1 NNW 54 69 29 37 1015.2 - 2.4
30/03:30am 13.2 4.8 9.1 76 2.1 NNW 43 56 23 30 1015.7 - 2.4
30/03:05am 13.1 4.6 9.2 77 2.0 NNW 44 63 24 34 1015.9 - 2.4
30/03:00am 13.1 4.8 9.4 78 1.9 NNW 43 54 23 29 1015.8 1015.8 2.4
30/02:30am 12.8 5.4 9.7 81 1.6 NNW 39 54 21 29 1016.4 - 2.4
30/02:00am 12.6 5.6 9.9 83 1.4 NNW 37 50 20 27 1016.2 - 2.4
30/01:30am 12.7 6.5 10.2 85 1.3 NNW 33 44 18 24 1016.2 - 2.4
30/01:00am 13.0 4.6 9.7 80 1.7 NNW 44 56 24 30 1016.1 - 2.4
30/12:30am 12.7 4.4 9.4 80 1.7 NNW 43 52 23 28 1016.5 - 2.4
30/12:00am 12.9 4.2 9.8 81 1.6 NNW 46 56 25 30 1016.2 1016.2 2.4
 
Date/Time
EDT
Temp
°C
App
Temp
°C
Dew
Point
Rel
Hum
%
Delta-T
°C
Wind Press
QNH
hPa
Press
MSL
hPa
Rain
since 9 am
mm
Dir
 
Spd
km/h
Gust
km/h
Spd
kts
Gust
kts
29/11:34pm 12.9 5.1 9.8 81 1.6 NNW 41 59 22 32 1016.5 - 2.4
29/11:30pm 12.7 5.7 9.8 82 1.5 NNW 37 48 20 26 1016.6 - 2.4
29/11:00pm 12.3 6.0 9.1 81 1.6 NNW 32 41 17 22 1017.1 - 2.4
29/10:30pm 12.4 6.0 8.4 76 2.0 NNW 32 41 17 22 1017.0 - 2.4
29/10:00pm 12.8 4.1 7.5 70 2.6 NNW 43 54 23 29 1016.9 - 2.4
29/09:30pm 12.2 6.1 8.2 76 2.0 NNW 30 37 16 20 1017.2 - 2.4
29/09:00pm 12.2 5.6 7.7 74 2.2 NNW 32 41 17 22 1017.0 1016.9 2.4
29/08:30pm 12.2 4.0 6.6 68 2.7 NNW 39 46 21 25 1016.5 - 2.4
29/08:00pm 12.3 4.0 7.8 74 2.2 NNW 41 48 22 26 1016.2 - 2.4
29/07:30pm 12.1 3.1 7.4 73 2.3 NNW 44 52 24 28 1016.0 - 2.4
29/07:00pm 12.2 2.5 7.3 72 2.4 NW 48 56 26 30 1015.7 - 2.4
29/06:30pm 12.2 1.6 6.8 69 2.6 NW 52 61 28 33 1015.5 - 2.4
29/06:00pm 12.3 2.1 6.9 69 2.6 NW 50 61 27 33 1015.4 1015.3 2.4
29/05:30pm 12.3 2.4 6.4 67 2.8 NW 48 56 26 30 1015.4 - 2.4
29/05:00pm 12.6 2.4 5.3 61 3.4 NW 48 54 26 29 1015.3 - 2.4
29/04:30pm 12.8 2.4 6.1 64 3.2 NW 50 57 27 31 1015.0 - 2.4
29/04:00pm 12.9 2.4 5.5 60 3.5 NW 50 57 27 31 1015.2 - 2.4
29/03:30pm 13.2 2.6 7.0 66 3.0 NW 52 57 28 31 1015.1 - 2.4
29/03:00pm 12.3 4.8 8.1 75 2.1 WNW 37 54 20 29 1014.7 1014.8 2.4
29/02:30pm 12.2 3.3 7.7 74 2.2 NW 44 50 24 27 1015.0 - 2.4
29/02:00pm 12.1 3.1 7.1 71 2.4 NW 44 52 24 28 1014.9 - 2.4
29/01:30pm 11.9 2.1 6.9 71 2.4 NW 48 57 26 31 1014.8 - 2.4
29/01:00pm 11.6 2.7 7.5 76 2.0 NW 44 50 24 27 1014.7 - 2.4
29/12:30pm 11.5 2.8 7.8 78 1.8 WNW 43 48 23 26 1014.7 - 2.4
29/12:00pm 11.3 2.8 8.7 84 1.3 WNW 43 50 23 27 1014.5 1014.3 2.4
29/11:30am 10.9 1.7 8.0 82 1.4 WNW 46 56 25 30 1014.7 - 2.4
29/11:00am 10.2 1.1 8.4 89 0.9 WNW 46 56 25 30 1014.3 - 2.4
29/10:30am 9.6 1.2 8.8 95 0.4 WNW 43 50 23 27 1014.3 - 2.2
29/10:00am 11.3 2.5 11.1 99 0.1 WNW 48 59 26 32 1013.6 - 2.0
29/09:56am 11.3 2.9 11.1 99 0.1 WNW 46 65 25 35 1013.7 - 1.8
29/09:30am 11.3 -1.1 10.9 97 0.2 NW 67 76 36 41 1012.4 - 1.6
29/09:15am 11.6 1.3 11.2 97 0.2 NW 56 80 30 43 1012.4 - 1.2
29/09:09am 11.4 -2.7 11.0 97 0.2 NW 76 96 41 52 1012.0 - 1.0
29/09:00am 13.5 -0.1 11.4 87 1.1 WNW 74 96 40 52 1010.2 1009.9 0.6
29/08:30am 13.2 -1.6 11.3 88 1.0 NNW 80 100 43 54 1010.2 - 0.4
29/08:00am 13.5 0.6 11.1 85 1.3 NNW 70 91 38 49 1010.3 - 0.4
29/07:30am 13.0 0.7 11.5 91 0.8 NNW 67 91 36 49 1010.4 - 0.4
29/07:28am 13.2 0.8 11.1 87 1.1 NNW 67 91 36 49 1010.1 - 0.4
29/07:00am 12.9 3.2 10.6 86 1.2 NNW 52 70 28 38 1010.6 - 0.4
29/06:37am 12.4 3.9 10.7 89 0.9 NNW 46 65 25 35 1010.9 - 0.2
29/06:30am 12.2 2.9 10.7 90 0.8 NNW 50 65 27 35 1011.0 - 0.2
29/06:20am 12.3 3.4 10.6 89 0.9 NNW 48 69 26 37 1010.9 - 0.2
29/06:00am 12.2 3.5 9.9 86 1.2 WNW 46 65 25 35 1011.0 1010.9 0.2
29/05:33am 12.3 2.2 9.1 81 1.6 NNW 52 70 28 38 1011.2 - 0.2
29/05:30am 12.2 1.8 9.2 82 1.5 NNW 54 70 29 38 1011.1 - 0.2
29/05:02am 12.3 1.9 9.1 81 1.6 NNW 54 72 29 39 1011.0 - 0.2
29/05:00am 12.4 2.4 9.5 82 1.5 NNW 52 65 28 35 1011.3 - 0.2
29/04:31am 12.2 2.9 9.0 81 1.6 NNW 48 67 26 36 1011.4 - 0.2
29/04:30am 12.1 2.8 9.1 82 1.5 NNW 48 65 26 35 1011.4 - 0.2
29/04:12am 11.7 2.5 9.5 86 1.1 NNW 48 69 26 37 1011.2 - 0.2
29/04:00am 11.4 2.7 9.8 90 0.8 NNW 46 61 25 33 1011.7 - 0.2
29/03:42am 11.9 3.1 9.5 85 1.2 NNW 46 65 25 35 1011.5 - 0.2
29/03:30am 11.8 2.1 9.2 84 1.3 NNW 50 67 27 36 1011.4 - 0.2
29/03:00am 11.7 2.9 9.5 86 1.1 NNW 46 61 25 33 1012.8 1012.7 0.2
29/02:46am 11.5 2.7 9.5 87 1.0 NNW 46 65 25 35 1012.8 - 0.2
29/02:30am 11.5 3.6 9.5 87 1.0 NNW 41 52 22 28 1012.9 - 0.2
29/02:00am 11.5 3.6 9.3 86 1.1 NNW 41 56 22 30 1013.1 - 0.2
29/01:30am 11.4 3.5 9.2 86 1.1 NNW 41 57 22 31 1013.6 - 0.2
29/01:00am 11.2 2.9 9.2 87 1.0 NNW 43 54 23 29 1014.1 - 0.2
29/12:36am 11.3 2.9 9.1 86 1.1 NNW 43 61 23 33 1014.4 - 0.2
29/12:30am 11.6 3.0 8.8 83 1.4 NNW 44 61 24 33 1014.5 - 0.2
29/12:00am 11.6 4.3 8.8 83 1.4 NNW 37 48 20 26 1014.9 1014.8 0.2
 
Date/Time
EDT
Temp
°C
App
Temp
°C
Dew
Point
Rel
Hum
%
Delta-T
°C
Wind Press
QNH
hPa
Press
MSL
hPa
Rain
since 9 am
mm
Dir
 
Spd
km/h
Gust
km/h
Spd
kts
Gust
kts
28/11:30pm 11.5 3.9 8.9 84 1.3 NNW 39 54 21 29 1015.2 - 0.2
28/11:00pm 11.5 3.5 9.1 85 1.2 NNW 41 56 22 30 1015.5 - 0.2
28/10:30pm 11.3 3.8 9.3 87 1.0 NNW 39 50 21 27 1016.0 - 0.2
28/10:00pm 11.6 3.7 9.4 86 1.1 NNW 41 50 22 27 1016.4 - 0.2
28/09:30pm 11.1 3.7 9.9 92 0.6 NNW 39 50 21 27 1016.7 - 0.2
28/09:00pm 11.0 3.5 9.6 91 0.7 NNW 39 50 21 27 1016.7 1016.6 0.2
28/08:30pm 11.3 3.4 9.3 87 1.0 NNW 41 56 22 30 1016.4 - 0.2
28/08:28pm 11.4 3.5 9.2 86 1.1 NNW 41 59 22 32 1016.5 - 0.2
28/08:00pm 11.6 4.0 9.0 84 1.3 NNW 39 50 21 27 1016.7 - 0.2
28/07:30pm 11.4 3.5 9.2 86 1.1 NNW 41 52 22 28 1017.0 - 0.2
28/07:00pm 11.4 3.0 9.0 85 1.2 NNW 43 56 23 30 1016.9 - 0.2
28/06:30pm 11.5 3.9 8.9 84 1.3 NNW 39 50 21 27 1017.0 - 0.2
28/06:00pm 11.4 4.0 9.8 90 0.8 NNW 39 50 21 27 1017.1 1017.1 0.2
28/05:30pm 11.2 3.0 9.8 91 0.7 NNW 43 52 23 28 1017.4 - 0.2
28/05:00pm 11.8 2.5 9.2 84 1.3 NNW 48 63 26 34 1017.5 - 0.2
28/04:30pm 12.1 2.9 7.8 75 2.1 NNW 46 57 25 31 1017.7 - 0.2

Other Formats:

Comma delimited format used in spreadsheet applications
http://www.bom.gov.au/fwo/IDT60801/IDT60801.94962.axf

JavaScript Object Notation format (JSON) in row-major order
http://www.bom.gov.au/fwo/IDT60801/IDT60801.94962.json